< < Back
Terminal Aerodrome Forecast


Current Version              Previous Versions:   1  2  3  4  5  6  7  8  9  

Terminal Aerodrome Forecast

118
FTUS42 KTAE 271727
TAFABY
TAF
KABY 271727Z 2718/2818 31012G20KT P6SM OVC015
     FM271930 31015G22KT P6SM SCT025
     FM272100 32012G18KT P6SM SKC
     FM280000 31008KT P6SM SKC=

Latest METAR

250
SAUS70 KWBC 281100 RRH
MTRABY
METAR KABY 281053Z AUTO 29006KT 10SM CLR 04/01 A3014 RMK AO2 SLP207
T00440006


USA.gov is the U.S. government's official web portal to all federal, state and local government web resources and services.